createdAt,value
2018-07-09T00:00:17.096Z,9.07
2018-07-09T00:02:46.060Z,10.90
2018-07-09T00:05:14.936Z,10.17
2018-07-09T00:07:43.874Z,7.77
2018-07-09T00:10:29.713Z,8.23
2018-07-09T00:13:04.108Z,8.77
2018-07-09T00:15:33.038Z,12.93
2018-07-09T00:18:01.977Z,9.40
2018-07-09T00:20:30.881Z,10.83
2018-07-09T00:22:59.892Z,9.17
2018-07-09T00:25:28.924Z,11.83
2018-07-09T00:27:57.828Z,10.97
2018-07-09T00:30:27.092Z,13.40
2018-07-09T00:32:56.504Z,11.10
2018-07-09T00:35:25.524Z,10.13
2018-07-09T00:37:54.491Z,11.33
2018-07-09T00:40:23.422Z,10.73
2018-07-09T00:42:53.012Z,9.80
2018-07-09T00:45:21.916Z,10.63
2018-07-09T00:47:51.254Z,13.83
2018-07-09T00:50:20.310Z,11.07
2018-07-09T00:52:49.304Z,12.03
2018-07-09T00:55:18.602Z,11.67
2018-07-09T00:57:47.500Z,11.33
2018-07-09T01:00:16.432Z,11.00
2018-07-09T01:02:45.358Z,11.77
2018-07-09T01:05:14.327Z,13.60
2018-07-09T01:07:43.255Z,14.23
2018-07-09T01:10:12.199Z,9.73
2018-07-09T01:12:41.146Z,13.23
2018-07-09T01:15:10.121Z,14.50
2018-07-09T01:17:39.067Z,10.70
2018-07-09T01:20:08.005Z,12.33
2018-07-09T01:22:37.000Z,13.03
2018-07-09T01:25:06.161Z,14.83
2018-07-09T01:27:35.129Z,14.17
2018-07-09T01:30:09.556Z,16.53
2018-07-09T01:32:38.968Z,15.90
2018-07-09T01:35:09.002Z,18.27
2018-07-09T01:37:38.405Z,19.97
2018-07-09T01:40:07.431Z,15.87
2018-07-09T01:42:36.606Z,15.57
2018-07-09T01:45:10.983Z,17.47
2018-07-09T01:47:45.405Z,17.13
2018-07-09T01:50:14.387Z,17.70
2018-07-09T01:52:43.341Z,17.77
2018-07-09T01:55:12.281Z,20.43
2018-07-09T01:57:41.237Z,18.70
2018-07-09T02:00:10.173Z,18.17
2018-07-09T02:02:41.103Z,14.93
2018-07-09T02:05:10.085Z,17.37
2018-07-09T02:07:39.015Z,16.67
2018-07-09T02:10:08.407Z,18.70
2018-07-09T02:12:37.413Z,21.97
2018-07-09T02:15:06.349Z,22.87
2018-07-09T02:17:35.298Z,20.33
2018-07-09T02:20:04.270Z,19.73
2018-07-09T02:22:33.161Z,15.77
2018-07-09T02:25:02.088Z,17.47
2018-07-09T02:27:31.129Z,20.53
2018-07-09T02:30:00.125Z,16.77
2018-07-09T02:32:29.027Z,17.83
2018-07-09T02:34:57.977Z,19.87
2018-07-09T02:37:27.082Z,16.30
2018-07-09T02:39:55.984Z,17.03
2018-07-09T02:42:24.895Z,19.87
2018-07-09T02:44:53.912Z,22.40
2018-07-09T02:47:22.914Z,21.47
2018-07-09T02:49:51.824Z,23.23
2018-07-09T02:52:20.733Z,18.43
2018-07-09T02:54:49.685Z,18.87
2018-07-09T02:57:18.586Z,19.30
2018-07-09T02:59:47.547Z,24.83
2018-07-09T03:02:16.481Z,20.40
2018-07-09T03:04:45.396Z,23.27
2018-07-09T03:07:14.346Z,19.73
2018-07-09T03:09:43.302Z,18.93
2018-07-09T03:12:12.354Z,21.60
2018-07-09T03:14:41.231Z,23.70
2018-07-09T03:17:10.200Z,23.70
2018-07-09T03:19:39.125Z,22.20
2018-07-09T03:22:08.064Z,23.73
2018-07-09T03:24:37.004Z,23.00
2018-07-09T03:27:06.014Z,20.77
2018-07-09T03:29:34.976Z,20.30
2018-07-09T03:32:03.936Z,20.53
2018-07-09T03:34:32.870Z,19.87
2018-07-09T03:37:01.794Z,22.07
2018-07-09T03:39:30.756Z,18.20
2018-07-09T03:41:59.671Z,24.37
2018-07-09T03:44:28.672Z,23.63
2018-07-09T03:46:57.609Z,27.67
2018-07-09T03:49:26.524Z,22.30
2018-07-09T03:51:55.516Z,22.03
2018-07-09T03:54:24.491Z,20.63
2018-07-09T03:56:53.403Z,21.97
2018-07-09T03:59:22.395Z,21.30
2018-07-09T04:01:51.401Z,19.90
2018-07-09T04:04:20.403Z,16.43
2018-07-09T04:06:49.328Z,18.57
2018-07-09T04:09:18.271Z,19.10
2018-07-09T04:11:47.244Z,21.43
2018-07-09T04:14:16.159Z,18.60
2018-07-09T04:16:45.222Z,22.17
2018-07-09T04:19:14.113Z,19.20
2018-07-09T04:21:43.042Z,16.47
2018-07-09T04:24:11.989Z,21.73
2018-07-09T04:26:40.893Z,14.97
2018-07-09T04:29:09.878Z,16.07
2018-07-09T04:31:38.842Z,20.73
2018-07-09T04:34:07.817Z,17.50
2018-07-09T04:36:36.832Z,17.63
2018-07-09T04:39:06.824Z,15.63
2018-07-09T04:41:36.099Z,18.37
2018-07-09T04:44:05.112Z,14.70
2018-07-09T04:46:34.062Z,18.93
2018-07-09T04:49:03.008Z,16.57
2018-07-09T04:51:31.948Z,18.37
2018-07-09T04:54:00.912Z,18.40
2018-07-09T04:56:29.878Z,19.43
2018-07-09T04:58:58.766Z,16.93
2018-07-09T05:01:27.748Z,18.47
2018-07-09T05:03:56.672Z,20.63
2018-07-09T05:06:25.608Z,22.67
2018-07-09T05:08:54.573Z,20.23
2018-07-09T05:11:23.492Z,20.63
2018-07-09T05:13:52.460Z,20.93
2018-07-09T05:16:21.388Z,19.00
2018-07-09T05:18:50.330Z,19.63
2018-07-09T05:21:19.258Z,18.60
2018-07-09T05:23:48.252Z,17.40
2018-07-09T05:26:17.196Z,19.13
2018-07-09T05:28:46.122Z,20.60
2018-07-09T05:31:15.046Z,20.73
2018-07-09T05:33:43.956Z,18.87
2018-07-09T05:36:12.960Z,16.17
2018-07-09T05:38:42.190Z,20.87
2018-07-09T05:41:11.217Z,17.37
2018-07-09T05:43:40.192Z,15.97
2018-07-09T05:46:09.137Z,16.43
2018-07-09T05:48:38.106Z,16.83
2018-07-09T05:51:07.038Z,15.13
2018-07-09T05:53:35.955Z,15.80
2018-07-09T05:56:04.924Z,19.13
2018-07-09T05:58:39.348Z,14.40
2018-07-09T06:01:13.835Z,15.80
2018-07-09T06:03:42.788Z,14.50
2018-07-09T06:06:11.790Z,14.07
2018-07-09T06:08:46.752Z,13.30
2018-07-09T06:11:15.721Z,13.20
2018-07-09T06:13:50.233Z,16.87
2018-07-09T06:16:19.178Z,13.67
2018-07-09T06:18:48.192Z,14.40
2018-07-09T06:21:17.122Z,11.97
2018-07-09T06:23:46.028Z,10.73
2018-07-09T06:26:15.014Z,12.20
2018-07-09T06:28:43.933Z,12.60
2018-07-09T06:31:12.959Z,11.97
2018-07-09T06:33:47.552Z,12.20
2018-07-09T06:36:16.537Z,15.10
2018-07-09T06:38:45.441Z,9.47
2018-07-09T06:41:14.432Z,14.67
2018-07-09T06:43:43.420Z,12.13
2018-07-09T06:46:12.350Z,11.33
2018-07-09T06:48:41.334Z,12.50
2018-07-09T06:51:10.300Z,16.97
2018-07-09T06:53:39.237Z,11.70
2018-07-09T06:56:08.192Z,10.07
2018-07-09T06:58:37.096Z,11.97
2018-07-09T07:01:06.307Z,11.03
2018-07-09T07:03:35.232Z,10.63
2018-07-09T07:06:04.224Z,8.67
2018-07-09T07:08:33.177Z,7.33
2018-07-09T07:11:02.148Z,14.20
2018-07-09T07:13:31.136Z,6.30
2018-07-09T07:16:00.052Z,7.77
2018-07-09T07:18:28.966Z,8.40
2018-07-09T07:20:58.937Z,5.83
2018-07-09T07:23:33.564Z,7.47
2018-07-09T07:26:02.526Z,11.50
2018-07-09T07:28:31.469Z,8.20
2018-07-09T07:31:00.360Z,8.70
2018-07-09T07:33:29.328Z,8.03
2018-07-09T07:35:58.389Z,8.77
2018-07-09T07:38:27.309Z,5.77
2018-07-09T07:40:56.343Z,7.97
2018-07-09T07:43:25.296Z,10.67
2018-07-09T07:45:54.245Z,6.10
2018-07-09T07:48:23.285Z,6.43
2018-07-09T07:50:52.317Z,6.97
2018-07-09T07:53:21.265Z,7.83
2018-07-09T07:55:50.233Z,6.90
2018-07-09T07:58:24.704Z,6.27
2018-07-09T08:00:59.237Z,6.27
2018-07-09T08:03:28.206Z,5.07
2018-07-09T08:05:57.137Z,5.83
2018-07-09T08:08:26.151Z,6.13
2018-07-09T08:10:55.099Z,5.30
2018-07-09T08:13:28.502Z,6.40
2018-07-09T08:15:53.160Z,6.73
2018-07-09T08:18:22.096Z,6.27
2018-07-09T08:20:56.653Z,6.60
2018-07-09T08:23:25.606Z,6.07
2018-07-09T08:25:59.937Z,5.57
2018-07-09T08:28:28.860Z,5.73
2018-07-09T08:30:57.888Z,7.53
2018-07-09T08:33:26.796Z,6.63
2018-07-09T08:35:55.688Z,8.17
2018-07-09T08:38:24.604Z,7.23
2018-07-09T08:40:54.631Z,6.57
2018-07-09T08:43:23.576Z,11.00
2018-07-09T08:45:52.579Z,6.53
2018-07-09T08:48:21.532Z,5.53
2018-07-09T08:50:50.446Z,5.90
2018-07-09T08:53:23.036Z,6.47
2018-07-09T08:55:52.103Z,8.30
2018-07-09T08:58:21.202Z,7.33
2018-07-09T09:00:50.204Z,5.73
2018-07-09T09:03:19.121Z,7.90
2018-07-09T09:05:48.336Z,9.03
2018-07-09T09:08:17.312Z,6.27
2018-07-09T09:10:46.267Z,7.43
2018-07-09T09:13:15.238Z,7.27
2018-07-09T09:15:44.360Z,6.37
2018-07-09T09:18:13.304Z,7.63
2018-07-09T09:20:50.034Z,6.40
2018-07-09T09:23:18.977Z,6.93
2018-07-09T09:25:53.604Z,6.10
2018-07-09T09:28:22.601Z,7.03
2018-07-09T09:30:51.639Z,6.73
2018-07-09T09:33:23.924Z,5.73
2018-07-09T09:35:52.904Z,5.87
2018-07-09T09:38:21.880Z,6.70
2018-07-09T09:40:50.808Z,5.80
2018-07-09T09:43:19.712Z,5.90
2018-07-09T09:45:48.664Z,6.23
2018-07-09T09:48:17.624Z,7.33
2018-07-09T09:50:46.745Z,10.37
2018-07-09T09:53:15.678Z,6.27
2018-07-09T09:55:44.628Z,6.27
2018-07-09T09:58:13.512Z,6.57
2018-07-09T10:00:47.568Z,7.50
2018-07-09T10:03:16.528Z,5.90
2018-07-09T10:05:45.627Z,6.47
2018-07-09T10:08:14.614Z,7.20
2018-07-09T10:10:43.553Z,5.73
2018-07-09T10:13:14.563Z,6.93
2018-07-09T10:15:43.480Z,8.17
2018-07-09T10:18:12.426Z,5.73
2018-07-09T10:20:41.357Z,8.63
2018-07-09T10:23:10.452Z,7.40
2018-07-09T10:25:39.236Z,7.67
2018-07-09T10:28:08.172Z,8.10
2018-07-09T10:30:37.194Z,9.63
2018-07-09T10:33:06.209Z,7.33
2018-07-09T10:35:35.147Z,8.77
2018-07-09T10:38:05.157Z,8.97
2018-07-09T10:40:34.089Z,7.17
2018-07-09T10:43:03.053Z,6.83
2018-07-09T10:45:35.154Z,10.40
2018-07-09T10:48:04.187Z,7.23
2018-07-09T10:50:36.962Z,9.53
2018-07-09T10:53:05.921Z,8.53
2018-07-09T10:55:35.025Z,9.63
2018-07-09T10:58:03.967Z,7.90
2018-07-09T11:00:32.981Z,7.73
2018-07-09T11:03:01.904Z,9.13
2018-07-09T11:05:30.855Z,10.70
2018-07-09T11:08:06.168Z,6.43
2018-07-09T11:10:40.627Z,6.27
2018-07-09T11:13:15.186Z,6.43
2018-07-09T11:15:44.116Z,7.97
2018-07-09T11:18:16.398Z,5.53
2018-07-09T11:20:46.212Z,7.00
2018-07-09T11:23:15.200Z,7.90
2018-07-09T11:25:44.173Z,6.37
2018-07-09T11:28:13.126Z,5.47
2018-07-09T11:30:42.063Z,8.93
2018-07-09T11:33:14.712Z,6.27
2018-07-09T11:35:43.684Z,7.23
2018-07-09T11:38:14.633Z,7.97
2018-07-09T11:40:43.545Z,5.97
2018-07-09T11:43:12.498Z,8.13
2018-07-09T11:45:41.417Z,6.57
2018-07-09T11:48:10.330Z,5.77
2018-07-09T11:50:39.314Z,6.27
2018-07-09T11:53:08.322Z,12.70
2018-07-09T11:55:37.233Z,3.70
2018-07-09T11:58:06.161Z,4.57
2018-07-09T12:00:35.175Z,4.80
2018-07-09T12:03:04.129Z,8.57
2018-07-09T12:05:33.075Z,4.87
2018-07-09T12:08:02.115Z,5.33
2018-07-09T12:10:31.021Z,4.90
2018-07-09T12:13:00.001Z,4.67
2018-07-09T12:15:28.964Z,5.83
2018-07-09T12:17:57.906Z,4.07
2018-07-09T12:20:26.807Z,2.67
2018-07-09T12:22:55.789Z,2.73
2018-07-09T12:25:24.693Z,3.73
2018-07-09T12:27:53.626Z,5.37
2018-07-09T12:30:22.589Z,4.63
2018-07-09T12:32:57.199Z,3.40
2018-07-09T12:35:26.203Z,3.67
2018-07-09T12:37:55.233Z,2.53
2018-07-09T12:40:24.141Z,2.77
2018-07-09T12:42:53.141Z,4.37
2018-07-09T12:45:25.915Z,3.20
2018-07-09T12:47:55.135Z,2.63
2018-07-09T12:50:24.171Z,2.77
2018-07-09T12:52:53.980Z,3.00
2018-07-09T12:55:23.079Z,3.13
2018-07-09T12:57:52.043Z,3.33
2018-07-09T13:00:20.975Z,2.30
2018-07-09T13:02:50.059Z,2.30
2018-07-09T13:05:19.244Z,2.20
2018-07-09T13:07:48.139Z,2.30
2018-07-09T13:10:17.107Z,3.63
2018-07-09T13:12:45.992Z,2.20
2018-07-09T13:15:14.910Z,4.33
2018-07-09T13:17:43.861Z,3.73
2018-07-09T13:20:12.873Z,2.77
2018-07-09T13:22:41.771Z,4.43
2018-07-09T13:25:10.755Z,2.93
2018-07-09T13:27:39.665Z,3.30
2018-07-09T13:30:08.645Z,2.70
2018-07-09T13:32:37.637Z,2.40
2018-07-09T13:35:06.624Z,6.57
2018-07-09T13:37:35.551Z,6.93
2018-07-09T13:40:04.510Z,2.43
2018-07-09T13:42:33.475Z,4.30
2018-07-09T13:45:02.468Z,2.30
2018-07-09T13:47:31.449Z,2.97
2018-07-09T13:50:00.449Z,4.40
2018-07-09T13:52:29.387Z,2.67
2018-07-09T13:54:58.324Z,2.87
2018-07-09T13:57:27.262Z,4.17
2018-07-09T13:59:56.250Z,3.33
2018-07-09T14:02:25.153Z,3.90
2018-07-09T14:04:54.133Z,2.83
2018-07-09T14:07:23.074Z,3.10
2018-07-09T14:09:52.101Z,2.83
2018-07-09T14:12:21.041Z,3.43
2018-07-09T14:14:50.037Z,3.10
2018-07-09T14:17:18.937Z,4.03
2018-07-09T14:20:28.397Z,3.20
2018-07-09T14:22:57.593Z,2.97
2018-07-09T14:25:26.543Z,2.00
2018-07-09T14:27:55.749Z,3.13
2018-07-09T14:30:24.803Z,2.70
2018-07-09T14:32:53.818Z,5.27
2018-07-09T14:35:22.759Z,2.60
2018-07-09T14:37:51.871Z,5.20
2018-07-09T14:40:20.844Z,4.23
2018-07-09T14:42:49.766Z,4.87
2018-07-09T14:45:18.727Z,3.73
2018-07-09T14:47:47.686Z,2.53
2018-07-09T14:50:16.631Z,3.83
2018-07-09T14:52:45.627Z,3.10
2018-07-09T14:55:14.553Z,3.17
2018-07-09T14:57:43.450Z,3.13
2018-07-09T15:00:12.363Z,4.07
2018-07-09T15:02:41.303Z,3.20
2018-07-09T15:05:10.223Z,3.40
2018-07-09T15:07:39.274Z,4.20
2018-07-09T15:10:08.203Z,2.97
2018-07-09T15:12:37.131Z,3.87
2018-07-09T15:15:07.193Z,3.70
2018-07-09T15:17:36.138Z,3.13
2018-07-09T15:20:05.164Z,3.43
2018-07-09T15:22:34.107Z,3.00
2018-07-09T15:25:03.096Z,4.00
2018-07-09T15:27:31.981Z,3.93
2018-07-09T15:30:00.932Z,5.90
2018-07-09T15:32:31.041Z,5.10
2018-07-09T15:35:00.253Z,4.27
2018-07-09T15:37:29.661Z,4.53
2018-07-09T15:39:58.575Z,4.50
2018-07-09T15:42:27.686Z,4.67
2018-07-09T15:44:56.596Z,3.90
2018-07-09T15:47:25.601Z,4.50
2018-07-09T15:49:54.645Z,4.30
2018-07-09T15:52:23.579Z,4.73
2018-07-09T15:54:52.543Z,4.43
2018-07-09T15:57:26.977Z,6.23
2018-07-09T15:59:55.925Z,6.07
2018-07-09T16:02:24.851Z,4.77
2018-07-09T16:04:53.847Z,6.63
2018-07-09T16:07:22.749Z,7.70
2018-07-09T16:09:51.767Z,6.23
2018-07-09T16:12:20.687Z,8.00
2018-07-09T16:14:49.645Z,5.67
2018-07-09T16:17:18.599Z,6.50
2018-07-09T16:19:47.583Z,6.13
2018-07-09T16:22:16.575Z,6.93
2018-07-09T16:24:45.480Z,8.70
2018-07-09T16:27:14.425Z,11.20
2018-07-09T16:29:43.354Z,11.63
2018-07-09T16:32:12.298Z,8.37
2018-07-09T16:34:41.205Z,9.33
2018-07-09T16:37:10.121Z,8.87
2018-07-09T16:39:39.057Z,9.70
2018-07-09T16:42:08.070Z,11.80
2018-07-09T16:44:37.036Z,15.33
2018-07-09T16:47:06.054Z,12.20
2018-07-09T16:49:35.030Z,8.73
2018-07-09T16:52:03.983Z,12.47
2018-07-09T16:54:32.975Z,12.40
2018-07-09T16:57:04.976Z,11.93
2018-07-09T16:59:33.912Z,21.37
2018-07-09T17:02:02.826Z,10.27
2018-07-09T17:04:31.768Z,14.13
2018-07-09T17:07:00.794Z,10.50
2018-07-09T17:09:29.850Z,10.43
2018-07-09T17:11:58.792Z,10.70
2018-07-09T17:14:27.719Z,7.47
2018-07-09T17:16:56.688Z,11.23
2018-07-09T17:19:25.615Z,13.67
2018-07-09T17:22:00.296Z,13.00
2018-07-09T17:24:29.218Z,12.97
2018-07-09T17:26:58.355Z,9.43
2018-07-09T17:29:27.089Z,8.57
2018-07-09T17:31:56.057Z,7.90
2018-07-09T17:34:24.968Z,5.73
2018-07-09T17:36:54.003Z,8.30
2018-07-09T17:39:22.892Z,8.23
2018-07-09T17:41:51.968Z,6.90
2018-07-09T17:44:21.167Z,7.90
2018-07-09T17:46:50.194Z,8.40
2018-07-09T17:49:19.118Z,9.43
2018-07-09T17:51:50.073Z,7.13
2018-07-09T17:54:19.527Z,8.60
2018-07-09T17:56:48.431Z,7.80
2018-07-09T17:59:17.406Z,5.50
2018-07-09T18:01:46.349Z,6.40
2018-07-09T18:04:15.295Z,5.87
2018-07-09T18:06:44.260Z,15.67
2018-07-09T18:09:13.168Z,8.27
2018-07-09T18:11:48.300Z,6.30
2018-07-09T18:14:17.259Z,5.33
2018-07-09T18:16:46.197Z,10.47
2018-07-09T18:19:19.172Z,2.83
2018-07-09T18:21:48.107Z,4.60
2018-07-09T18:24:17.074Z,7.77
2018-07-09T18:26:46.042Z,9.83
2018-07-09T18:29:14.997Z,5.43
2018-07-09T18:31:44.028Z,4.33
2018-07-09T18:34:18.677Z,4.83
2018-07-09T18:36:53.232Z,4.77
2018-07-09T18:39:22.216Z,6.77
2018-07-09T18:41:51.346Z,5.07
2018-07-09T18:44:20.294Z,5.20
2018-07-09T18:46:49.208Z,7.57
2018-07-09T18:49:18.142Z,5.33
2018-07-09T18:51:47.091Z,4.70
2018-07-09T18:54:16.188Z,5.73
2018-07-09T18:56:45.157Z,6.80
2018-07-09T18:59:14.093Z,5.57
2018-07-09T19:01:43.100Z,10.20
2018-07-09T19:04:12.132Z,3.90
2018-07-09T19:06:51.754Z,9.47
2018-07-09T19:09:21.380Z,7.80
2018-07-09T19:11:50.337Z,5.53
2018-07-09T19:14:20.255Z,13.90
2018-07-09T19:17:00.376Z,5.13
2018-07-09T19:19:40.616Z,9.80
2018-07-09T19:22:09.634Z,14.20
2018-07-09T19:24:43.528Z,9.83
2018-07-09T19:27:11.352Z,9.67
2018-07-09T19:29:39.203Z,5.50
2018-07-09T19:32:07.091Z,11.60
2018-07-09T19:34:34.988Z,7.57
2018-07-09T19:37:02.827Z,10.13
2018-07-09T19:39:30.639Z,6.97
2018-07-09T19:41:58.491Z,6.80
2018-07-09T19:44:26.323Z,5.07
2018-07-09T19:46:54.179Z,5.40
2018-07-09T19:49:22.031Z,2.90
2018-07-09T19:51:49.896Z,3.17
2018-07-09T19:54:17.740Z,5.53
2018-07-09T19:56:45.556Z,2.63
2018-07-09T19:59:13.369Z,5.23
2018-07-09T20:01:41.266Z,4.57
2018-07-09T20:04:09.081Z,4.50
2018-07-09T20:06:36.897Z,3.90
2018-07-09T20:09:10.308Z,2.93
2018-07-09T20:11:43.434Z,5.97
2018-07-09T20:14:16.544Z,4.57
2018-07-09T20:16:49.672Z,4.97
2018-07-09T20:19:17.517Z,3.17
2018-07-09T20:21:45.383Z,2.53
2018-07-09T20:24:13.184Z,4.10
2018-07-09T20:26:41.049Z,4.57
2018-07-09T20:29:08.903Z,4.00
2018-07-09T20:31:36.776Z,6.70
2018-07-09T20:34:04.658Z,6.23
2018-07-09T20:36:32.544Z,4.50
2018-07-09T20:39:00.388Z,2.60
2018-07-09T20:41:28.226Z,9.27
2018-07-09T20:43:56.094Z,3.23
2018-07-09T20:46:23.964Z,7.43
2018-07-09T20:48:51.820Z,2.50
2018-07-09T20:51:19.640Z,6.80
2018-07-09T20:53:47.496Z,3.50
2018-07-09T20:56:15.334Z,4.17
2018-07-09T20:58:43.162Z,6.27
2018-07-09T21:01:10.996Z,8.70
2018-07-09T21:03:38.860Z,5.93
2018-07-09T21:06:06.702Z,5.87
2018-07-09T21:08:34.585Z,6.20
2018-07-09T21:11:02.450Z,4.97
2018-07-09T21:13:32.064Z,6.87
2018-07-09T21:16:00.083Z,4.73
2018-07-09T21:18:27.806Z,3.83
2018-07-09T21:20:55.641Z,4.97
2018-07-09T21:23:29.156Z,2.97
2018-07-09T21:25:58.673Z,5.93
2018-07-09T21:28:26.561Z,5.13
2018-07-09T21:30:54.366Z,7.07
2018-07-09T21:33:22.195Z,6.20
2018-07-09T21:35:50.034Z,4.57
2018-07-09T21:38:17.904Z,3.40
2018-07-09T21:40:45.807Z,4.27
2018-07-09T21:43:13.934Z,4.33
2018-07-09T21:45:41.796Z,6.83
2018-07-09T21:48:10.554Z,8.53
2018-07-09T21:50:37.524Z,5.63
2018-07-09T21:53:05.399Z,5.00
2018-07-09T21:55:33.199Z,8.37
2018-07-09T21:58:01.067Z,7.07
2018-07-09T22:00:29.308Z,4.50
2018-07-09T22:02:57.131Z,3.90
2018-07-09T22:05:25.095Z,4.00
2018-07-09T22:07:52.961Z,4.23
2018-07-09T22:10:20.821Z,3.57
2018-07-09T22:12:48.676Z,4.87
2018-07-09T22:15:16.473Z,5.77
2018-07-09T22:17:44.303Z,3.47
2018-07-09T22:20:12.158Z,1.70
2018-07-09T22:22:40.024Z,5.70
2018-07-09T22:25:07.838Z,6.30
2018-07-09T22:27:35.662Z,1.43
2018-07-09T22:30:03.853Z,5.73
2018-07-09T22:32:38.464Z,4.07
2018-07-09T22:35:13.064Z,4.57
2018-07-09T22:37:42.025Z,1.97
2018-07-09T22:40:11.106Z,5.20
2018-07-09T22:42:45.672Z,3.13
2018-07-09T22:45:14.587Z,4.03
2018-07-09T22:47:43.515Z,3.23
2018-07-09T22:50:12.479Z,1.47
2018-07-09T22:52:41.436Z,3.40
2018-07-09T22:55:21.808Z,1.90
2018-07-09T22:57:50.756Z,5.33
2018-07-09T23:00:20.087Z,5.37
2018-07-09T23:03:04.666Z,5.10
2018-07-09T23:05:35.647Z,3.93
2018-07-09T23:08:04.806Z,2.33
2018-07-09T23:11:52.716Z,3.90
2018-07-09T23:14:34.652Z,5.97
2018-07-09T23:17:14.870Z,3.63
2018-07-09T23:20:09.016Z,4.50
2018-07-09T23:22:36.848Z,3.47
2018-07-09T23:25:04.738Z,3.87
2018-07-09T23:27:32.593Z,3.90
2018-07-09T23:30:00.417Z,6.73
2018-07-09T23:32:28.261Z,3.07
2018-07-09T23:34:56.136Z,2.83
2018-07-09T23:37:24.071Z,2.50
2018-07-09T23:39:51.914Z,3.90
2018-07-09T23:42:19.742Z,3.93
2018-07-09T23:44:47.593Z,7.17
2018-07-09T23:47:16.345Z,6.67
2018-07-09T23:49:44.170Z,3.57
2018-07-09T23:52:12.092Z,1.30
2018-07-09T23:54:39.911Z,1.47
2018-07-09T23:59:22.738Z,0.90
